KBOK/BOK METAR and TAF weather

Enter ICAO airport designator
Station Type Date Time Source
KBOK METAR 2020/09/26 22:56 UTC NOAA

KBOK 262256Z AUTO 30009KT 10SM BKN075 21/15 A3021 RMK AO2 SLP227 T02060150


Station Type Date Time Source
KBOK Decoded METAR 2020/09/26 22:56 UTC NOAA

Brookings, Brookings Airport, OR, United States (KBOK) 42-04-28N 124-17-24W
Sep 26, 2020 - 06:56 PM EDT / 2020.09.26 2256 UTC
Wind: from the WNW (300 degrees) at 10 MPH (9 KT):0
Visibility: 10 mile(s):0
Sky conditions: mostly cloudy
Temperature: 69.1 F (20.6 C)
Dew Point: 59.0 F (15.0 C)
Relative Humidity: 70%
Pressure (altimeter): 30.21 in. Hg (1023 hPa)
ob: KBOK 262256Z AUTO 30009KT 10SM BKN075 21/15 A3021 RMK AO2 SLP227 T02060150
cycle: 23

Station Type Date Time Source
KBOK TAF UTC NOAA

Error!

Example: see airport list